Time;durP1;ratioP1;P1;durP2;ratioP2;P2;SDS_P1;SDS_P2;PMS_P1;PMS_P2;Temp;Humidity;BMP_temperature;BMP_pressure;BME280_temperature;BME280_humidity;BME280_pressure;Samples;Min_cycle;Max_cycle;Signal;HPM_P1;HPM_P2
2022/09/12 00:01:24;;;;;;;7.35;6.00;;;13.40;99.90;;;;;;5035867;28;20037;-76
2022/09/12 00:03:55;;;;;;;7.40;6.53;;;13.40;99.90;;;;;;5036303;28;20466;-76
2022/09/12 00:06:25;;;;;;;6.43;5.75;;;13.30;99.90;;;;;;5036140;28;20033;-76
2022/09/12 00:08:53;;;;;;;9.00;6.60;;;13.30;99.90;;;;;;5036029;28;20037;-76
2022/09/12 00:11:19;;;;;;;5.15;4.35;;;13.30;99.90;;;;;;5034716;28;20025;-76
2022/09/12 00:13:44;;;;;;;8.50;6.90;;;13.30;99.90;;;;;;5035614;28;20477;-76
2022/09/12 00:16:20;;;;;;;9.25;6.90;;;13.40;99.90;;;;;;5034592;28;20493;-76
2022/09/12 00:18:46;;;;;;;11.85;6.80;;;13.30;99.90;;;;;;5035812;28;20068;-76
2022/09/12 00:21:12;;;;;;;8.30;6.85;;;13.40;99.90;;;;;;5035796;28;20467;-76
2022/09/12 00:23:38;;;;;;;9.13;7.35;;;13.40;99.90;;;;;;5036003;28;20022;-76
2022/09/12 00:26:05;;;;;;;11.00;7.88;;;13.40;99.90;;;;;;5035942;28;20376;-76
2022/09/12 00:28:33;;;;;;;9.15;7.30;;;13.40;99.90;;;;;;5035243;28;20029;-76
2022/09/12 00:30:58;;;;;;;9.50;7.65;;;13.40;99.90;;;;;;5034316;28;20030;-76
2022/09/12 00:33:24;;;;;;;7.85;7.15;;;13.30;99.90;;;;;;5034306;28;20083;-76
2022/09/12 00:35:53;;;;;;;8.55;6.80;;;13.40;99.90;;;;;;5035530;28;20079;-76
2022/09/12 00:38:19;;;;;;;;;;;13.40;99.90;;;;;;5035750;28;20032;-76
2022/09/12 00:40:47;;;;;;;9.02;7.18;;;13.40;99.90;;;;;;5034082;28;19905;-76
2022/09/12 00:43:13;;;;;;;10.98;8.55;;;13.40;99.90;;;;;;5035609;28;20022;-76
2022/09/12 00:45:41;;;;;;;11.23;8.77;;;13.40;99.90;;;;;;5035276;28;20064;-76
2022/09/12 00:48:20;;;;;;;9.80;8.50;;;13.30;99.90;;;;;;5035273;28;20029;-76
2022/09/12 00:50:46;;;;;;;12.27;7.78;;;13.40;99.90;;;;;;5033972;28;20060;-76
2022/09/12 00:53:11;;;;;;;11.55;8.27;;;13.30;99.90;;;;;;5035412;28;20064;-76
2022/09/12 00:55:41;;;;;;;9.30;7.85;;;13.30;99.90;;;;;;5035112;28;20053;-76
2022/09/12 00:58:21;;;;;;;9.50;8.13;;;13.30;99.90;;;;;;5034696;28;20028;-76
2022/09/12 01:00:48;;;;;;;11.13;8.15;;;13.20;99.90;;;;;;5035378;28;20039;-76
2022/09/12 01:03:17;;;;;;;14.10;10.10;;;13.20;99.90;;;;;;5034621;28;20071;-76
2022/09/12 01:06:04;;;;;;;12.45;9.75;;;13.20;99.90;;;;;;5035155;28;20025;-76
2022/09/12 01:08:33;;;;;;;15.73;10.07;;;13.20;99.90;;;;;;5034621;28;20543;-76
2022/09/12 01:10:58;;;;;;;12.60;10.65;;;13.20;99.90;;;;;;5033541;28;20523;-76
2022/09/12 01:13:25;;;;;;;11.95;9.68;;;13.20;99.90;;;;;;5035070;28;20090;-76
2022/09/12 01:15:51;;;;;;;16.13;11.75;;;13.20;99.90;;;;;;5034697;28;20389;-76
2022/09/12 01:18:33;;;;;;;12.23;10.30;;;13.20;99.90;;;;;;5033587;28;20068;-76
2022/09/12 01:21:07;;;;;;;12.38;9.98;;;13.20;99.90;;;;;;5034919;28;20454;-76
2022/09/12 01:23:54;;;;;;;13.20;10.05;;;13.10;99.90;;;;;;5034759;28;20052;-76
2022/09/12 01:26:39;;;;;;;15.02;11.57;;;13.10;99.90;;;;;;5035055;28;20457;-76
2022/09/12 01:29:23;;;;;;;13.65;10.68;;;13.00;99.90;;;;;;5033228;28;20496;-75
2022/09/12 01:32:05;;;;;;;14.35;10.40;;;13.10;99.90;;;;;;5034480;28;20021;-76
2022/09/12 01:34:45;;;;;;;13.32;10.95;;;13.00;99.90;;;;;;5034683;28;20025;-76
2022/09/12 01:37:11;;;;;;;15.13;10.45;;;13.00;99.90;;;;;;5034346;28;20500;-76
2022/09/12 01:39:39;;;;;;;15.48;11.27;;;13.00;99.90;;;;;;5033432;28;20072;-76
2022/09/12 01:42:20;;;;;;;17.30;10.75;;;13.00;99.90;;;;;;5034544;28;20029;-76
2022/09/12 01:44:55;;;;;;;15.68;11.30;;;13.00;99.90;;;;;;5033038;28;20033;-76
2022/09/12 01:47:25;;;;;;;14.68;10.75;;;13.00;99.90;;;;;;5034218;28;20028;-76
2022/09/12 01:49:51;;;;;;;14.13;11.77;;;12.90;99.90;;;;;;5033094;28;20033;-76
2022/09/12 01:52:18;;;;;;;13.90;10.63;;;12.90;99.90;;;;;;5034116;28;20458;-76
2022/09/12 01:54:53;;;;;;;17.33;10.80;;;12.90;99.90;;;;;;5032888;28;20025;-76
2022/09/12 01:57:26;;;;;;;17.27;11.57;;;12.90;99.90;;;;;;5032786;28;20037;-76
2022/09/12 01:59:57;;;;;;;16.08;10.93;;;12.80;99.90;;;;;;5034008;28;20033;-76
2022/09/12 02:02:39;;;;;;;16.35;12.13;;;12.80;99.90;;;;;;5033799;28;20036;-76
2022/09/12 02:05:34;;;;;;;16.83;11.73;;;12.80;99.90;;;;;;5034069;28;20033;-76
2022/09/12 02:08:10;;;;;;;15.63;11.52;;;12.80;99.90;;;;;;5033645;28;20030;-76
2022/09/12 02:10:59;;;;;;;15.45;11.90;;;12.80;99.90;;;;;;5034019;28;20031;-76
2022/09/12 02:13:28;;;;;;;17.88;13.13;;;12.80;99.90;;;;;;5034225;28;20026;-76
2022/09/12 02:15:59;;;;;;;18.13;13.13;;;12.80;99.90;;;;;;5033716;28;20036;-76
2022/09/12 02:18:29;;;;;;;18.85;11.95;;;12.80;99.90;;;;;;5032542;28;20658;-76
2022/09/12 02:20:56;;;;;;;19.70;11.73;;;12.80;99.90;;;;;;5032524;28;20022;-76
2022/09/12 02:23:28;;;;;;;20.20;12.45;;;12.80;99.90;;;;;;5032528;28;20025;-76
2022/09/12 02:25:59;;;;;;;18.27;11.93;;;12.80;99.90;;;;;;5032511;28;20037;-76
2022/09/12 02:28:31;;;;;;;17.20;12.13;;;12.80;99.90;;;;;;5033493;28;20050;-76
2022/09/12 02:31:21;;;;;;;16.23;11.88;;;12.80;99.90;;;;;;5033768;28;20026;-76
2022/09/12 02:34:05;;;;;;;16.70;12.38;;;12.80;99.90;;;;;;5032569;28;20037;-76
2022/09/12 02:36:46;;;;;;;18.75;12.82;;;12.80;99.90;;;;;;5032415;28;20030;-76
2022/09/12 02:39:12;;;;;;;18.77;13.60;;;12.80;99.90;;;;;;5032615;28;20401;-76
2022/09/12 02:41:37;;;;;;;20.20;13.65;;;12.70;99.90;;;;;;5033367;28;20033;-76
2022/09/12 02:44:04;;;;;;;22.90;13.88;;;12.70;99.90;;;;;;5033876;28;20034;-76
2022/09/12 02:46:40;;;;;;;19.77;13.23;;;12.80;99.90;;;;;;5033607;28;20104;-76
2022/09/12 02:49:07;;;;;;;21.77;14.20;;;12.80;99.90;;;;;;5033584;28;20032;-76
2022/09/12 02:51:33;;;;;;;20.83;12.95;;;12.80;99.90;;;;;;5036476;28;20025;-76
2022/09/12 02:53:59;;;;;;;17.92;12.30;;;12.90;99.90;;;;;;5037375;28;20160;-76
2022/09/12 02:56:29;;;;;;;17.33;12.98;;;12.80;99.90;;;;;;5037505;28;20026;-76
2022/09/12 02:59:00;;;;;;;16.95;12.55;;;12.80;99.90;;;;;;5035958;28;20029;-78
2022/09/12 03:01:32;;;;;;;17.10;12.02;;;12.80;99.90;;;;;;5035929;28;20488;-76
2022/09/12 03:04:09;;;;;;;20.73;12.82;;;12.70;99.90;;;;;;5037330;28;20053;-76
2022/09/12 03:06:40;;;;;;;19.83;12.63;;;12.70;99.90;;;;;;5035868;28;20474;-76
2022/09/12 03:09:22;;;;;;;18.60;13.18;;;12.70;99.90;;;;;;5036305;28;20025;-76
2022/09/12 03:12:10;;;;;;;19.40;12.77;;;12.70;99.90;;;;;;5037167;28;20119;-76
2022/09/12 03:14:45;;;;;;;18.95;14.00;;;12.60;99.90;;;;;;5035962;28;20025;-76
2022/09/12 03:17:57;;;;;;;19.58;13.65;;;12.60;99.90;;;;;;5037162;28;20116;-76
2022/09/12 03:20:23;;;;;;;23.45;13.60;;;12.60;99.90;;;;;;5004424;28;20038;-77
2022/09/12 03:22:54;;;;;;;19.15;13.68;;;12.60;99.90;;;;;;5023543;28;20041;-77
2022/09/12 03:25:26;;;;;;;20.63;13.02;;;12.60;99.90;;;;;;5029747;28;20034;-77
2022/09/12 03:28:20;;;;;;;22.08;13.27;;;12.60;99.90;;;;;;5038834;28;20021;-75
2022/09/12 03:30:48;;;;;;;22.50;12.68;;;12.60;99.90;;;;;;5037448;28;20044;-76
2022/09/12 03:33:19;;;;;;;18.60;13.07;;;12.60;99.90;;;;;;5036994;28;20030;-76
2022/09/12 03:35:46;;;;;;;19.08;12.75;;;12.60;99.90;;;;;;5036591;28;20037;-76
2022/09/12 03:38:12;;;;;;;24.38;12.73;;;12.60;99.90;;;;;;5035504;28;20382;-76
2022/09/12 03:40:38;;;;;;;16.90;12.30;;;12.60;99.90;;;;;;5035483;28;20492;-76
2022/09/12 03:43:06;;;;;;;21.05;13.80;;;12.60;99.90;;;;;;5036492;28;20045;-76
2022/09/12 03:45:32;;;;;;;18.10;13.50;;;12.60;99.90;;;;;;5036531;28;20028;-76
2022/09/12 03:47:58;;;;;;;19.00;12.55;;;12.60;99.90;;;;;;5035081;28;20384;-76
2022/09/12 03:50:24;;;;;;;21.02;12.55;;;12.60;99.90;;;;;;5036062;28;20040;-76
2022/09/12 03:52:49;;;;;;;20.27;12.60;;;12.60;99.90;;;;;;5034962;28;20092;-76
2022/09/12 03:55:16;;;;;;;19.38;12.70;;;12.60;99.90;;;;;;5035001;28;20083;-76
2022/09/12 03:57:42;;;;;;;21.63;13.60;;;12.60;99.90;;;;;;5036199;28;20108;-76
2022/09/12 04:00:08;;;;;;;19.17;12.68;;;12.60;99.90;;;;;;5034850;28;20037;-76
2022/09/12 04:02:34;;;;;;;18.38;12.20;;;12.60;99.90;;;;;;5034160;28;20120;-76
2022/09/12 04:05:00;;;;;;;20.67;12.50;;;12.60;99.90;;;;;;5034852;28;20060;-76
2022/09/12 04:07:26;;;;;;;19.17;12.25;;;12.60;99.90;;;;;;5034768;28;20026;-76
2022/09/12 04:09:52;;;;;;;17.35;11.98;;;12.60;99.90;;;;;;5034664;28;20034;-76
2022/09/12 04:12:18;;;;;;;18.63;11.00;;;12.60;99.90;;;;;;5034960;28;20354;-77
2022/09/12 04:14:44;;;;;;;17.88;12.40;;;12.60;99.90;;;;;;5034816;28;20029;-76
2022/09/12 04:17:10;;;;;;;18.65;12.13;;;12.60;99.90;;;;;;5035851;28;20521;-59
2022/09/12 04:19:36;;;;;;;16.88;11.95;;;12.60;99.90;;;;;;5035644;28;20037;-75
2022/09/12 04:22:02;;;;;;;17.20;12.07;;;12.60;99.90;;;;;;5034598;28;20030;-76
2022/09/12 04:24:28;;;;;;;16.65;11.20;;;12.60;99.90;;;;;;5034416;28;20029;-77
2022/09/12 04:26:53;;;;;;;20.23;12.43;;;12.60;99.90;;;;;;5034385;28;20029;-77
2022/09/12 04:29:19;;;;;;;15.98;12.13;;;12.60;99.90;;;;;;5035876;28;20030;-77
2022/09/12 04:31:45;;;;;;;20.55;13.20;;;12.60;99.90;;;;;;5035275;28;20037;-75
2022/09/12 04:34:10;;;;;;;22.10;13.15;;;12.60;99.90;;;;;;5034167;28;20026;-74
2022/09/12 04:36:36;;;;;;;19.15;11.90;;;12.60;99.90;;;;;;5035605;28;20037;-76
2022/09/12 04:39:05;;;;;;;17.10;12.10;;;12.70;99.90;;;;;;5035239;28;20040;-75
2022/09/12 04:41:33;;;;;;;17.75;11.32;;;12.70;99.90;;;;;;5034998;28;20029;-74
2022/09/12 04:44:03;;;;;;;19.92;12.07;;;12.70;99.90;;;;;;5033914;28;20029;-75
2022/09/12 04:46:31;;;;;;;22.83;11.90;;;12.80;99.90;;;;;;5035536;28;20053;-76
2022/09/12 04:48:57;;;;;;;18.02;11.40;;;12.80;99.90;;;;;;5035169;28;20091;-75
2022/09/12 04:51:26;;;;;;;13.50;10.38;;;12.90;99.90;;;;;;5033877;28;20033;-73
2022/09/12 04:53:53;;;;;;;;;;;12.90;99.90;;;;;;5035487;28;20025;-59
2022/09/12 04:56:20;;;;;;;17.98;11.10;;;13.00;99.90;;;;;;5035471;28;19979;-73
2022/09/12 04:58:46;;;;;;;22.52;11.90;;;13.10;99.90;;;;;;5034998;28;20032;-73
2022/09/12 05:01:14;;;;;;;16.55;10.50;;;13.10;99.90;;;;;;5035005;28;20026;-73
2022/09/12 05:03:44;;;;;;;14.80;10.27;;;13.20;99.90;;;;;;5034901;28;20088;-73
2022/09/12 05:06:21;;;;;;;13.98;10.68;;;13.20;99.90;;;;;;5035040;28;20377;-73
2022/09/12 05:08:47;;;;;;;15.20;10.32;;;13.20;99.90;;;;;;5034795;28;20030;-74
2022/09/12 05:11:15;;;;;;;14.15;9.57;;;13.30;99.90;;;;;;5033095;28;20029;-73
2022/09/12 05:13:41;;;;;;;12.60;9.30;;;13.40;99.90;;;;;;5033971;28;20080;-73
2022/09/12 05:16:09;;;;;;;11.45;8.80;;;13.50;99.90;;;;;;5033381;28;20171;-73
2022/09/12 05:18:35;;;;;;;10.45;8.27;;;13.60;99.90;;;;;;5033091;28;20045;-73
2022/09/12 05:21:03;;;;;;;11.65;8.05;;;13.60;99.90;;;;;;5034113;28;20389;-59
2022/09/12 05:23:29;;;;;;;12.50;7.95;;;13.70;99.90;;;;;;5034354;28;20034;-59
2022/09/12 05:25:56;;;;;;;11.00;7.15;;;13.90;99.90;;;;;;5034163;28;20026;-59
2022/09/12 05:28:23;;;;;;;9.00;6.95;;;14.00;99.90;;;;;;5034257;28;20025;-59
2022/09/12 05:31:00;;;;;;;12.48;7.78;;;14.00;99.90;;;;;;5034305;28;20516;-59
2022/09/12 05:33:26;;;;;;;11.70;6.88;;;14.10;99.90;;;;;;5034224;28;20025;-59
2022/09/12 05:35:52;;;;;;;7.97;6.55;;;14.10;99.90;;;;;;5034194;28;20022;-59
2022/09/12 05:38:17;;;;;;;11.18;7.38;;;14.00;99.90;;;;;;5034376;28;20029;-59
2022/09/12 05:40:43;;;;;;;14.38;7.25;;;14.00;99.90;;;;;;5034694;28;20464;-59
2022/09/12 05:43:11;;;;;;;9.43;6.88;;;14.00;99.90;;;;;;5033867;28;20104;-75
2022/09/12 05:45:37;;;;;;;8.48;6.70;;;14.00;99.90;;;;;;5034167;28;20365;-59
2022/09/12 05:48:03;;;;;;;11.77;6.00;;;14.20;99.90;;;;;;5034254;28;20029;-59
2022/09/12 05:50:29;;;;;;;8.68;5.95;;;14.40;99.90;;;;;;5033805;28;20428;-59
2022/09/12 05:52:56;;;;;;;6.65;5.43;;;14.70;99.90;;;;;;5034014;28;20028;-60
2022/09/12 05:55:23;;;;;;;8.05;5.40;;;15.00;99.90;;;;;;5033980;28;20101;-59
2022/09/12 05:57:49;;;;;;;5.85;5.00;;;15.30;99.90;;;;;;5034139;28;20109;-59
2022/09/12 06:00:15;;;;;;;5.88;4.30;;;15.50;99.90;;;;;;5033510;28;20034;-59
2022/09/12 06:02:41;;;;;;;5.20;3.80;;;15.80;99.90;;;;;;5033593;28;20055;-60
2022/09/12 06:05:07;;;;;;;5.95;3.92;;;16.00;99.90;;;;;;5033766;28;20153;-59
2022/09/12 06:07:34;;;;;;;5.22;4.15;;;16.30;99.90;;;;;;5033916;28;20030;-59
2022/09/12 06:10:00;;;;;;;7.55;4.40;;;16.40;99.90;;;;;;5033718;28;20041;-59
2022/09/12 06:12:28;;;;;;;4.18;3.45;;;16.50;99.90;;;;;;5033806;28;20119;-59
2022/09/12 06:14:54;;;;;;;8.80;3.30;;;16.80;99.90;;;;;;5034070;28;20026;-60
2022/09/12 06:17:21;;;;;;;4.25;3.13;;;17.20;99.90;;;;;;5033641;28;20131;-60
2022/09/12 06:19:48;;;;;;;4.75;3.28;;;17.50;99.90;;;;;;5033710;28;20484;-59
2022/09/12 06:22:15;;;;;;;4.70;3.20;;;17.90;99.90;;;;;;5033644;28;20025;-60
2022/09/12 06:24:40;;;;;;;3.38;3.08;;;18.20;99.90;;;;;;5034296;28;20035;-74
2022/09/12 06:27:06;;;;;;;5.35;3.45;;;18.60;99.90;;;;;;5039919;28;20029;-74
2022/09/12 06:29:31;;;;;;;5.72;3.90;;;18.40;99.90;;;;;;5038948;28;20033;-74
2022/09/12 06:31:57;;;;;;;7.20;3.78;;;18.10;99.90;;;;;;5040174;28;20033;-74
2022/09/12 06:34:25;;;;;;;4.70;3.47;;;17.70;99.90;;;;;;5039098;28;20025;-75
2022/09/12 06:36:51;;;;;;;3.53;3.22;;;17.40;99.90;;;;;;5038839;28;20025;-74
2022/09/12 06:39:19;;;;;;;5.80;3.47;;;17.20;99.90;;;;;;5038905;28;20044;-75
2022/09/12 06:41:47;;;;;;;5.38;3.33;;;17.10;99.90;;;;;;5039792;28;20022;-76
2022/09/12 06:44:18;;;;;;;7.82;3.35;;;17.10;99.90;;;;;;5040122;28;20025;-76
2022/09/12 06:46:44;;;;;;;4.70;3.60;;;17.10;99.90;;;;;;5039222;28;20182;-76
2022/09/12 06:49:10;;;;;;;6.53;4.20;;;17.00;99.90;;;;;;5039947;28;20505;-75
2022/09/12 06:51:36;;;;;;;4.63;4.00;;;17.00;99.90;;;;;;5039956;28;20029;-77
2022/09/12 06:54:03;;;;;;;4.13;3.72;;;16.80;99.90;;;;;;5040017;28;20480;-77
2022/09/12 06:56:28;;;;;;;5.50;3.92;;;16.80;99.90;;;;;;5040039;28;20108;-76
2022/09/12 06:58:56;;;;;;;4.50;3.90;;;16.80;99.90;;;;;;5039889;28;20596;-74
2022/09/12 07:01:27;;;;;;;5.18;4.68;;;16.80;99.90;;;;;;5039688;28;20083;-78
2022/09/12 07:03:55;;;;;;;4.65;3.78;;;16.90;99.90;;;;;;5038541;28;20472;-78
2022/09/12 07:06:23;;;;;;;4.95;3.30;;;16.90;99.90;;;;;;5038973;28;20112;-78
2022/09/12 07:08:50;;;;;;;4.00;3.60;;;17.00;99.90;;;;;;5039950;28;20121;-78
2022/09/12 07:11:22;;;;;;;5.10;3.72;;;17.10;99.90;;;;;;5039505;28;20045;-77
2022/09/12 07:13:50;;;;;;;4.47;4.03;;;17.20;99.90;;;;;;5038902;28;20033;-77
2022/09/12 07:16:17;;;;;;;3.60;3.30;;;17.40;99.90;;;;;;5040192;28;20040;-77
2022/09/12 07:18:44;;;;;;;5.10;3.42;;;17.40;99.90;;;;;;5038471;28;20026;-77
2022/09/12 07:21:13;;;;;;;5.75;3.78;;;17.50;99.90;;;;;;5038623;28;20030;-77
2022/09/12 07:23:40;;;;;;;9.03;4.67;;;17.50;99.90;;;;;;5040058;28;20041;-78
2022/09/12 07:26:08;;;;;;;6.53;4.25;;;17.40;99.90;;;;;;5038744;28;20061;-78
2022/09/12 07:28:34;;;;;;;5.85;3.67;;;17.40;99.90;;;;;;5039494;28;20063;-77
2022/09/12 07:31:17;;;;;;;6.20;4.50;;;17.30;99.90;;;;;;5038515;28;20033;-76
2022/09/12 07:33:43;;;;;;;5.60;3.83;;;17.40;99.90;;;;;;5039480;28;20029;-76
2022/09/12 07:36:13;;;;;;;6.57;4.00;;;17.60;99.90;;;;;;5038825;28;20036;-78
2022/09/12 07:38:40;;;;;;;5.07;4.32;;;17.90;99.90;;;;;;5034679;28;20095;-78
2022/09/12 07:41:10;;;;;;;8.52;4.47;;;18.40;99.90;;;;;;5036334;28;20072;-77
2022/09/12 07:43:36;;;;;;;5.85;3.47;;;18.70;99.90;;;;;;5035439;28;20481;-77
2022/09/12 07:46:02;;;;;;;8.50;3.50;;;19.00;99.90;;;;;;5035269;28;20139;-77
2022/09/12 07:48:27;;;;;;;4.05;3.40;;;19.00;99.90;;;;;;5036287;28;20026;-77
2022/09/12 07:51:01;;;;;;;5.10;3.58;;;19.00;99.90;;;;;;5036373;28;20029;-76
2022/09/12 07:53:38;;;;;;;5.10;4.03;;;19.20;99.90;;;;;;5036225;28;20018;-76
2022/09/12 07:56:05;;;;;;;4.20;3.83;;;19.70;99.90;;;;;;5036568;28;20148;-77
2022/09/12 07:58:32;;;;;;;3.78;3.03;;;20.20;99.90;;;;;;5034917;28;20377;-77
2022/09/12 08:01:07;;;;;;;4.15;3.08;;;20.30;99.90;;;;;;5036823;28;20036;-77
2022/09/12 08:03:33;;;;;;;4.80;3.50;;;20.00;99.90;;;;;;5039278;28;20489;-76
2022/09/12 08:06:07;;;;;;;4.07;3.30;;;19.80;99.90;;;;;;5039986;28;20029;-77
2022/09/12 08:08:35;;;;;;;4.47;3.33;;;19.60;99.90;;;;;;5037768;28;20038;-76
2022/09/12 08:11:04;;;;;;;4.50;3.58;;;19.90;99.90;;;;;;5038102;28;20029;-77
2022/09/12 08:13:31;;;;;;;5.63;3.25;;;20.50;99.90;;;;;;5036649;28;20021;-76
2022/09/12 08:16:01;;;;;;;3.67;3.22;;;20.70;99.90;;;;;;5035979;28;20030;-77
2022/09/12 08:18:28;;;;;;;4.78;3.15;;;21.40;99.90;;;;;;5034915;28;20029;-76
2022/09/12 08:20:58;;;;;;;3.60;3.28;;;21.40;99.90;;;;;;5034521;28;20065;-76
2022/09/12 08:23:23;;;;;;;6.75;3.17;;;21.00;99.90;;;;;;5034211;28;20124;-77
2022/09/12 08:25:50;;;;;;;4.40;3.30;;;20.30;99.90;;;;;;5036143;28;20060;-76
2022/09/12 08:28:16;;;;;;;8.38;4.50;;;20.00;99.90;;;;;;5035393;28;20029;-76
2022/09/12 08:30:41;;;;;;;6.65;3.50;;;19.70;99.90;;;;;;5035383;28;20032;-76
2022/09/12 08:33:07;;;;;;;3.97;3.45;;;19.20;99.90;;;;;;5035606;28;20025;-76
2022/09/12 08:35:32;;;;;;;3.78;3.38;;;19.00;99.90;;;;;;5034277;28;20116;-76
2022/09/12 08:37:58;;;;;;;5.07;3.10;;;19.50;99.90;;;;;;5035685;28;20025;-77
2022/09/12 08:40:24;;;;;;;5.20;3.50;;;20.20;99.90;;;;;;5035316;28;20489;-77
2022/09/12 08:43:32;;;;;;;5.22;2.92;;;20.90;99.90;;;;;;5034551;28;20417;-77
2022/09/12 08:46:07;;;;;;;3.83;3.17;;;21.80;99.90;;;;;;5034069;28;20029;-76
2022/09/12 08:48:33;;;;;;;4.05;2.90;;;22.50;99.00;;;;;;5033894;28;20034;-78
2022/09/12 08:50:59;;;;;;;4.82;2.92;;;22.60;99.10;;;;;;5033998;28;20120;-76
2022/09/12 08:53:27;;;;;;;3.03;2.72;;;22.90;97.70;;;;;;5033937;28;20029;-74
2022/09/12 08:55:58;;;;;;;4.50;2.72;;;23.20;97.30;;;;;;5035532;28;20462;-76
2022/09/12 08:58:26;;;;;;;5.55;2.70;;;23.60;95.50;;;;;;5033821;28;20492;-76
2022/09/12 09:01:07;;;;;;;3.25;2.80;;;23.80;94.40;;;;;;5033728;28;20390;-77
2022/09/12 09:03:57;;;;;;;3.53;2.50;;;23.70;93.20;;;;;;5033677;28;20052;-75
2022/09/12 09:06:45;;;;;;;5.35;2.75;;;23.70;93.30;;;;;;5033894;28;20025;-76
2022/09/12 09:09:26;;;;;;;3.40;2.80;;;24.00;93.70;;;;;;5034651;28;20071;-77
2022/09/12 09:12:09;;;;;;;3.92;2.63;;;24.50;91.90;;;;;;5034509;28;20083;-77
2022/09/12 09:14:50;;;;;;;4.38;2.53;;;24.50;90.40;;;;;;5033643;28;20430;-75
2022/09/12 09:17:33;;;;;;;4.32;3.05;;;24.00;89.30;;;;;;5033499;28;20035;-76
2022/09/12 09:20:16;;;;;;;2.80;2.28;;;24.00;90.30;;;;;;5035015;28;20038;-77
2022/09/12 09:23:07;;;;;;;4.75;2.53;;;24.20;90.10;;;;;;5033696;28;20030;-77
2022/09/12 09:25:43;;;;;;;3.38;3.08;;;24.20;87.20;;;;;;5033382;28;20030;-74
2022/09/12 09:28:24;;;;;;;5.20;2.80;;;24.00;87.90;;;;;;5033414;28;20036;-76
2022/09/12 09:30:50;;;;;;;3.75;2.72;;;24.30;87.70;;;;;;5033480;28;20029;-74
2022/09/12 09:33:25;;;;;;;4.53;2.90;;;24.30;86.60;;;;;;5033210;28;20068;-77
2022/09/12 09:36:17;;;;;;;2.53;2.33;;;24.00;87.80;;;;;;5033143;28;20488;-76
2022/09/12 09:38:54;;;;;;;6.18;2.38;;;23.80;90.40;;;;;;5031780;28;20099;-74
2022/09/12 09:41:35;;;;;;;3.15;2.58;;;23.60;89.50;;;;;;5033090;28;20033;-74
2022/09/12 09:44:01;;;;;;;7.43;2.67;;;23.90;86.00;;;;;;5034671;28;20381;-74
2022/09/12 09:46:27;;;;;;;3.50;2.55;;;23.50;86.40;;;;;;5034191;28;20465;-76
2022/09/12 09:48:55;;;;;;;3.88;3.15;;;22.90;89.90;;;;;;5033888;28;20045;-76
2022/09/12 09:51:31;;;;;;;3.45;2.50;;;22.30;90.10;;;;;;5032661;28;20033;-76
2022/09/12 09:54:02;;;;;;;2.63;2.30;;;22.50;91.50;;;;;;5033575;28;20033;-77
2022/09/12 09:56:34;;;;;;;3.28;2.50;;;22.80;90.10;;;;;;5033834;28;20022;-76
2022/09/12 09:59:15;;;;;;;2.83;2.53;;;22.80;89.00;;;;;;5034360;28;20033;-77
2022/09/12 10:01:53;;;;;;;3.50;2.50;;;22.90;90.40;;;;;;5033011;28;20480;-60
2022/09/12 10:04:28;;;;;;;3.28;2.65;;;23.00;90.70;;;;;;5033518;28;20072;-60
2022/09/12 10:06:57;;;;;;;2.95;2.65;;;22.40;90.90;;;;;;5033589;28;20473;-60
2022/09/12 10:09:32;;;;;;;4.30;2.85;;;22.00;91.70;;;;;;5033909;28;20033;-60
2022/09/12 10:11:58;;;;;;;4.28;2.88;;;22.40;91.70;;;;;;5032759;28;20373;-60
2022/09/12 10:14:35;;;;;;;2.53;2.30;;;22.40;90.50;;;;;;5033873;28;20079;-60
2022/09/12 10:17:21;;;;;;;2.38;2.17;;;22.90;88.60;;;;;;5033868;28;20126;-60
2022/09/12 10:19:47;;;;;;;2.78;2.58;;;23.70;86.70;;;;;;5033899;28;20470;-58
2022/09/12 10:22:22;;;;;;;3.60;1.92;;;24.60;81.20;;;;;;5033812;28;20034;-59
2022/09/12 10:24:51;;;;;;;2.28;2.10;;;25.20;79.80;;;;;;5033677;28;20036;-58
2022/09/12 10:27:27;;;;;;;2.88;2.03;;;25.40;77.60;;;;;;5033433;28;20057;-58
2022/09/12 10:30:16;;;;;;;2.72;2.53;;;24.70;78.40;;;;;;5033722;28;20120;-58
2022/09/12 10:32:45;;;;;;;3.28;2.20;;;24.80;79.70;;;;;;5033689;28;20022;-58
2022/09/12 10:35:21;;;;;;;2.42;2.13;;;25.20;76.30;;;;;;5033711;28;20030;-58
2022/09/12 10:37:54;;;;;;;4.50;2.00;;;25.20;76.00;;;;;;5033270;28;20493;-58
2022/09/12 10:40:24;;;;;;;3.85;2.00;;;24.70;75.20;;;;;;5033647;28;20033;-58
2022/09/12 10:42:52;;;;;;;2.03;1.83;;;24.90;75.70;;;;;;5033516;28;20025;-59
2022/09/12 10:45:31;;;;;;;4.05;1.88;;;25.70;75.00;;;;;;5033544;28;20021;-59
2022/09/12 10:47:59;;;;;;;2.65;2.17;;;26.10;71.40;;;;;;5033371;28;20029;-58
2022/09/12 10:50:29;;;;;;;3.33;1.85;;;25.90;69.60;;;;;;5033680;28;20030;-59
2022/09/12 10:53:22;;;;;;;2.65;1.60;;;25.60;70.70;;;;;;5033461;28;20121;-59
2022/09/12 10:56:04;;;;;;;2.17;1.98;;;26.10;70.80;;;;;;5033529;28;20025;-59
2022/09/12 10:58:50;;;;;;;2.10;1.92;;;25.40;70.90;;;;;;5040775;28;20418;-59
2022/09/12 11:01:43;;;;;;;1.92;1.83;;;25.40;72.80;;;;;;5050405;28;20033;-59
2022/09/12 11:04:17;;;;;;;2.13;1.98;;;25.20;73.50;;;;;;5053030;28;20071;-58
2022/09/12 11:06:49;;;;;;;3.10;2.10;;;24.60;75.00;;;;;;5052944;28;20414;-58
2022/09/12 11:09:26;;;;;;;2.28;2.05;;;24.80;75.40;;;;;;5046825;28;20037;-59
2022/09/12 11:12:18;;;;;;;4.30;2.35;;;24.60;73.40;;;;;;5034883;28;20033;-59
2022/09/12 11:14:57;;;;;;;2.65;1.95;;;23.90;75.50;;;;;;5044638;28;20100;-58
2022/09/12 11:18:11;;;;;;;4.45;1.98;;;23.80;76.20;;;;;;5049950;28;20036;-60
2022/09/12 11:20:47;;;;;;;3.38;2.10;;;23.70;77.30;;;;;;5034674;28;20037;-60
2022/09/12 11:23:34;;;;;;;3.13;2.08;;;23.90;75.80;;;;;;5035250;28;20037;-61
2022/09/12 11:26:31;;;;;;;2.95;2.47;;;24.60;75.60;;;;;;5047672;28;20033;-59
2022/09/12 11:29:07;;;;;;;4.22;2.88;;;24.80;75.60;;;;;;5055840;28;20033;-59
2022/09/12 11:31:48;;;;;;;2.20;1.88;;;25.80;74.30;;;;;;5050209;28;20033;-59
2022/09/12 11:34:38;;;;;;;2.90;2.10;;;26.40;71.00;;;;;;5047361;28;20037;-59
2022/09/12 11:37:22;;;;;;;2.45;2.25;;;26.40;68.50;;;;;;5043990;28;20064;-59
2022/09/12 11:39:51;;;;;;;2.22;2.00;;;26.10;69.50;;;;;;5045131;28;20409;-59
2022/09/12 11:42:33;;;;;;;2.50;2.30;;;26.10;69.10;;;;;;5027189;28;20416;-59
2022/09/12 11:45:25;;;;;;;2.75;2.50;;;26.70;68.30;;;;;;5044528;28;20381;-59
2022/09/12 11:48:02;;;;;;;5.63;1.85;;;27.20;65.20;;;;;;5044962;28;20889;-59
2022/09/12 11:50:30;;;;;;;4.35;2.17;;;27.10;64.10;;;;;;5044763;28;20476;-60
2022/09/12 11:53:06;;;;;;;2.40;1.67;;;27.80;64.50;;;;;;5049367;28;20032;-59
2022/09/12 11:55:45;;;;;;;4.35;2.10;;;28.30;62.30;;;;;;5055197;28;20024;-59
2022/09/12 11:58:12;;;;;;;1.75;1.55;;;28.40;60.60;;;;;;5056286;28;20032;-59
2022/09/12 12:00:45;;;;;;;1.92;1.80;;;28.50;61.10;;;;;;5055136;28;20444;-59
2022/09/12 12:03:14;;;;;;;1.80;1.70;;;28.10;59.50;;;;;;5055981;28;20056;-60
2022/09/12 12:05:43;;;;;;;3.78;1.90;;;27.40;60.90;;;;;;5056916;28;20032;-59
2022/09/12 12:08:10;;;;;;;1.83;1.73;;;27.50;59.90;;;;;;5060254;28;20053;-59
2022/09/12 12:10:48;;;;;;;3.63;1.83;;;27.50;59.00;;;;;;5058931;28;20033;-60
2022/09/12 12:13:14;;;;;;;2.30;1.60;;;26.90;60.20;;;;;;5060463;28;20473;-60
2022/09/12 12:16:05;;;;;;;2.33;1.80;;;26.40;62.40;;;;;;5059104;28;20032;-59
2022/09/12 12:18:34;;;;;;;1.63;1.50;;;26.80;61.00;;;;;;5057500;28;20021;-59
2022/09/12 12:21:19;;;;;;;4.07;1.90;;;27.30;60.30;;;;;;5057398;28;20021;-59
2022/09/12 12:24:14;;;;;;;2.03;1.85;;;27.20;59.70;;;;;;5059303;28;20407;-59
2022/09/12 12:26:39;;;;;;;3.40;1.55;;;27.30;60.80;;;;;;5058266;28;20159;-59
2022/09/12 12:29:17;;;;;;;1.95;1.75;;;27.60;58.80;;;;;;5056195;28;20112;-59
2022/09/12 12:32:03;;;;;;;2.78;1.92;;;27.60;59.50;;;;;;5055656;28;20029;-59
2022/09/12 12:34:35;;;;;;;2.28;2.05;;;27.50;59.10;;;;;;5055418;28;20032;-59
2022/09/12 12:37:28;;;;;;;2.40;1.58;;;27.20;59.30;;;;;;5055306;28;20025;-58
2022/09/12 12:40:21;;;;;;;2.33;1.77;;;27.00;60.70;;;;;;5049644;28;20489;-59
2022/09/12 12:42:47;;;;;;;1.85;1.65;;;27.90;58.70;;;;;;5054786;28;20044;-59
2022/09/12 12:45:28;;;;;;;2.53;1.33;;;28.60;56.90;;;;;;5055318;28;20033;-59
2022/09/12 12:48:06;;;;;;;3.60;1.70;;;29.20;56.00;;;;;;5055181;28;20109;-59
2022/09/12 12:50:32;;;;;;;1.85;1.70;;;29.70;53.80;;;;;;5055212;28;20029;-61
2022/09/12 12:53:05;;;;;;;1.60;1.50;;;29.40;53.30;;;;;;5055616;28;20037;-59
2022/09/12 12:55:37;;;;;;;1.85;1.75;;;29.10;53.40;;;;;;5055090;28;20029;-59
2022/09/12 12:58:05;;;;;;;3.05;1.70;;;28.80;55.10;;;;;;5055114;28;20462;-59
2022/09/12 13:00:31;;;;;;;2.03;1.90;;;28.90;54.30;;;;;;5055094;28;20047;-59
2022/09/12 13:03:03;;;;;;;1.63;1.52;;;29.30;53.70;;;;;;5054748;28;20045;-60
2022/09/12 13:05:45;;;;;;;2.08;1.88;;;29.90;51.20;;;;;;5054843;28;20445;-61